createdAt,value
2019-05-29T00:00:30.758Z,35.13
2019-05-29T00:03:34.716Z,45.40
2019-05-29T00:06:38.699Z,48.73
2019-05-29T00:09:42.578Z,51.73
2019-05-29T00:12:46.536Z,52.07
2019-05-29T00:15:50.475Z,47.07
2019-05-29T00:18:57.620Z,45.43
2019-05-29T00:22:00.063Z,54.87
2019-05-29T00:25:08.571Z,50.77
2019-05-29T00:28:12.719Z,42.80
2019-05-29T00:31:17.893Z,35.70
2019-05-29T00:34:22.355Z,37.57
2019-05-29T00:37:26.327Z,39.70
2019-05-29T00:40:30.216Z,36.43
2019-05-29T00:43:34.141Z,41.80
2019-05-29T00:46:37.980Z,46.60
2019-05-29T00:49:41.981Z,40.33
2019-05-29T00:52:45.868Z,35.10
2019-05-29T00:55:49.819Z,35.50
2019-05-29T00:58:53.739Z,28.00
2019-05-29T01:01:57.692Z,30.67
2019-05-29T01:05:01.645Z,25.17
2019-05-29T01:08:05.624Z,27.63
2019-05-29T01:11:10.548Z,28.37
2019-05-29T01:14:15.141Z,29.70
2019-05-29T01:17:19.832Z,28.37
2019-05-29T01:20:23.816Z,33.47
2019-05-29T01:23:27.819Z,30.30
2019-05-29T01:26:31.818Z,30.80
2019-05-29T01:29:35.706Z,34.10
2019-05-29T01:32:39.596Z,34.03
2019-05-29T01:35:43.518Z,38.23
2019-05-29T01:38:47.505Z,35.17
2019-05-29T01:41:51.410Z,36.13
2019-05-29T01:45:07.064Z,30.47
2019-05-29T01:48:00.916Z,28.37
2019-05-29T01:51:05.153Z,30.40
2019-05-29T01:54:09.052Z,30.33
2019-05-29T01:57:13.031Z,27.63
2019-05-29T02:00:17.831Z,31.13
2019-05-29T02:03:22.033Z,31.30
2019-05-29T02:06:25.994Z,32.53
2019-05-29T02:09:29.951Z,28.20
2019-05-29T02:12:33.860Z,26.67
2019-05-29T02:15:37.782Z,32.73
2019-05-29T02:18:41.640Z,28.57
2019-05-29T02:21:45.621Z,26.40
2019-05-29T02:24:49.521Z,23.50
2019-05-29T02:27:53.472Z,23.20
2019-05-29T02:30:57.481Z,24.17
2019-05-29T02:34:01.430Z,22.53
2019-05-29T02:37:05.303Z,23.27
2019-05-29T02:40:09.651Z,23.20
2019-05-29T02:43:13.649Z,19.90
2019-05-29T02:46:19.310Z,21.00
2019-05-29T02:49:23.864Z,21.80
2019-05-29T02:52:28.768Z,18.27
2019-05-29T02:55:33.605Z,17.00
2019-05-29T02:58:37.519Z,16.37
2019-05-29T03:01:41.398Z,14.07
2019-05-29T03:04:45.401Z,15.27
2019-05-29T03:07:49.517Z,12.37
2019-05-29T03:10:53.582Z,9.30
2019-05-29T03:13:57.515Z,13.27
2019-05-29T03:17:01.467Z,10.43
2019-05-29T03:20:06.890Z,10.77
2019-05-29T03:23:10.790Z,9.63
2019-05-29T03:26:14.696Z,10.63
2019-05-29T03:29:18.666Z,22.53
2019-05-29T03:32:22.656Z,16.13
2019-05-29T03:35:28.390Z,17.87
2019-05-29T03:38:33.218Z,17.70
2019-05-29T03:41:39.065Z,20.40
2019-05-29T03:44:43.099Z,17.53
2019-05-29T03:47:47.135Z,21.90
2019-05-29T03:50:51.122Z,12.50
2019-05-29T03:53:55.123Z,11.47
2019-05-29T03:56:59.005Z,12.53
2019-05-29T04:00:02.993Z,11.93
2019-05-29T04:03:06.861Z,12.30
2019-05-29T04:06:10.801Z,10.90
2019-05-29T04:09:14.660Z,9.23
2019-05-29T04:12:19.277Z,10.00
2019-05-29T04:15:23.336Z,11.40
2019-05-29T04:18:29.587Z,10.90
2019-05-29T04:21:34.293Z,12.57
2019-05-29T04:24:41.319Z,10.77
2019-05-29T04:27:48.240Z,9.00
2019-05-29T04:30:52.139Z,8.83
2019-05-29T04:33:56.126Z,11.47
2019-05-29T04:37:00.028Z,11.27
2019-05-29T04:40:05.899Z,11.33
2019-05-29T04:43:09.782Z,10.03
2019-05-29T04:46:13.709Z,11.63
2019-05-29T04:49:20.164Z,14.30
2019-05-29T04:52:23.236Z,10.17
2019-05-29T04:55:27.108Z,10.80
2019-05-29T04:58:31.056Z,7.20
2019-05-29T05:01:35.062Z,6.47
2019-05-29T05:04:39.423Z,6.10
2019-05-29T05:07:43.420Z,4.70
2019-05-29T05:10:47.426Z,4.93
2019-05-29T05:13:51.323Z,4.70
2019-05-29T05:16:55.575Z,4.90
2019-05-29T05:19:59.492Z,4.30
2019-05-29T05:23:03.480Z,5.67
2019-05-29T05:26:07.406Z,8.77
2019-05-29T05:29:11.377Z,9.90
2019-05-29T05:32:15.261Z,4.60
2019-05-29T05:35:19.280Z,6.03
2019-05-29T05:38:23.221Z,3.93
2019-05-29T05:41:27.237Z,6.10
2019-05-29T05:44:31.438Z,3.20
2019-05-29T05:47:50.006Z,4.30
2019-05-29T05:50:41.515Z,8.87
2019-05-29T05:53:45.587Z,4.70
2019-05-29T05:56:49.520Z,5.63
2019-05-29T05:59:54.061Z,4.37
2019-05-29T06:02:58.253Z,3.80
2019-05-29T06:06:02.760Z,9.43
2019-05-29T06:09:08.579Z,9.87
2019-05-29T06:12:12.590Z,13.20
2019-05-29T06:15:16.753Z,8.60
2019-05-29T06:18:21.921Z,5.10
2019-05-29T06:21:26.254Z,5.57
2019-05-29T06:24:30.174Z,3.20
2019-05-29T06:27:35.173Z,4.60
2019-05-29T06:30:40.878Z,5.60
2019-05-29T06:33:44.762Z,6.90
2019-05-29T06:36:48.708Z,4.90
2019-05-29T06:39:52.716Z,8.17
2019-05-29T06:42:56.732Z,7.20
2019-05-29T06:46:00.636Z,7.17
2019-05-29T06:49:04.697Z,6.00
2019-05-29T06:52:09.296Z,6.93
2019-05-29T06:55:13.580Z,8.80
2019-05-29T06:58:17.625Z,6.77
2019-05-29T07:01:21.714Z,5.50
2019-05-29T07:04:25.825Z,5.70
2019-05-29T07:07:29.780Z,4.47
2019-05-29T07:10:34.527Z,4.77
2019-05-29T07:13:41.804Z,6.67
2019-05-29T07:16:55.788Z,5.33
2019-05-29T07:20:00.757Z,5.00
2019-05-29T07:22:58.242Z,5.47
2019-05-29T07:26:02.325Z,5.53
2019-05-29T07:29:08.591Z,7.33
2019-05-29T07:32:12.735Z,8.07
2019-05-29T07:35:16.817Z,4.57
2019-05-29T07:38:20.926Z,5.40
2019-05-29T07:41:24.847Z,3.90
2019-05-29T07:44:28.850Z,3.93
2019-05-29T07:47:32.767Z,4.43
2019-05-29T07:50:37.955Z,5.90
2019-05-29T07:53:42.286Z,4.17
2019-05-29T07:56:46.635Z,3.70
2019-05-29T07:59:50.535Z,4.53
2019-05-29T08:02:54.451Z,6.43
2019-05-29T08:05:58.463Z,13.17
2019-05-29T08:09:02.440Z,11.70
2019-05-29T08:12:06.329Z,18.63
2019-05-29T08:15:10.576Z,21.17
2019-05-29T08:18:14.471Z,14.33
2019-05-29T08:21:18.406Z,15.80
2019-05-29T08:24:24.797Z,12.23
2019-05-29T08:27:27.941Z,12.27
2019-05-29T08:30:31.838Z,11.53
2019-05-29T08:33:35.915Z,8.67
2019-05-29T08:36:40.808Z,7.77
2019-05-29T08:39:45.536Z,8.33
2019-05-29T08:42:49.490Z,7.13
2019-05-29T08:45:53.536Z,7.23
2019-05-29T08:48:57.481Z,5.90
2019-05-29T08:52:10.985Z,9.40
2019-05-29T08:55:08.079Z,8.40
2019-05-29T08:58:12.234Z,6.60
2019-05-29T09:01:16.552Z,4.17
2019-05-29T09:04:20.527Z,5.90
2019-05-29T09:07:24.529Z,4.47
2019-05-29T09:10:29.641Z,5.53
2019-05-29T09:13:33.567Z,4.30
2019-05-29T09:16:37.918Z,4.47
2019-05-29T09:19:42.026Z,7.37
2019-05-29T09:22:45.940Z,8.33
2019-05-29T09:25:49.899Z,6.30
2019-05-29T09:28:53.908Z,4.53
2019-05-29T09:31:57.881Z,5.27
2019-05-29T09:35:02.136Z,5.40
2019-05-29T09:38:07.351Z,5.67
2019-05-29T09:41:11.293Z,5.40
2019-05-29T09:44:31.261Z,7.73
2019-05-29T09:47:22.217Z,5.43
2019-05-29T09:50:27.674Z,5.53
2019-05-29T09:53:31.827Z,5.67
2019-05-29T09:56:35.688Z,5.77
2019-05-29T09:59:39.658Z,6.93
2019-05-29T10:02:43.593Z,6.60
2019-05-29T10:05:47.648Z,5.93
2019-05-29T10:08:51.554Z,4.50
2019-05-29T10:11:59.670Z,5.60
2019-05-29T10:15:02.526Z,5.20
2019-05-29T10:18:10.141Z,4.60
2019-05-29T10:21:12.566Z,4.43
2019-05-29T10:24:16.579Z,4.40
2019-05-29T10:27:20.475Z,6.93
2019-05-29T10:30:25.842Z,4.57
2019-05-29T10:33:29.802Z,9.93
2019-05-29T10:36:33.862Z,7.73
2019-05-29T10:39:37.891Z,5.20
2019-05-29T10:42:42.949Z,3.93
2019-05-29T10:45:48.041Z,3.70
2019-05-29T10:48:55.974Z,6.53
2019-05-29T10:52:13.901Z,6.13
2019-05-29T10:55:04.765Z,3.90
2019-05-29T10:58:08.659Z,3.80
2019-05-29T11:01:12.613Z,5.40
2019-05-29T11:04:16.569Z,4.67
2019-05-29T11:07:22.162Z,4.77
2019-05-29T11:10:27.213Z,6.43
2019-05-29T11:13:31.093Z,3.60
2019-05-29T11:16:35.016Z,4.50
2019-05-29T11:19:38.963Z,4.03
2019-05-29T11:22:42.876Z,6.53
2019-05-29T11:25:47.772Z,8.27
2019-05-29T11:28:52.409Z,5.73
2019-05-29T11:31:57.009Z,5.13
2019-05-29T11:35:02.221Z,5.17
2019-05-29T11:38:06.594Z,6.00
2019-05-29T11:41:25.319Z,5.57
2019-05-29T11:44:17.813Z,6.80
2019-05-29T11:47:21.779Z,7.13
2019-05-29T11:50:25.842Z,6.97
2019-05-29T11:53:29.883Z,6.30
2019-05-29T11:56:34.912Z,11.17
2019-05-29T11:59:38.983Z,7.83
2019-05-29T12:02:43.123Z,10.10
2019-05-29T12:05:47.321Z,12.53
2019-05-29T12:08:51.483Z,12.57
2019-05-29T12:11:56.105Z,17.50
2019-05-29T12:15:09.854Z,12.53
2019-05-29T12:18:23.039Z,13.33
2019-05-29T12:21:11.585Z,14.03
2019-05-29T12:24:15.617Z,16.60
2019-05-29T12:27:19.482Z,12.07
2019-05-29T12:30:24.957Z,15.73
2019-05-29T12:33:28.985Z,19.97
2019-05-29T12:36:32.900Z,16.40
2019-05-29T12:39:36.902Z,23.83
2019-05-29T12:42:44.747Z,18.23
2019-05-29T12:45:46.438Z,15.33
2019-05-29T12:48:50.473Z,13.40
2019-05-29T12:51:55.387Z,17.53
2019-05-29T12:55:00.023Z,14.53
2019-05-29T12:58:04.569Z,10.97
2019-05-29T13:01:08.583Z,12.47
2019-05-29T13:04:12.685Z,12.73
2019-05-29T13:07:17.003Z,9.73
2019-05-29T13:10:30.590Z,13.30
2019-05-29T13:13:27.516Z,12.93
2019-05-29T13:16:31.708Z,14.60
2019-05-29T13:19:35.643Z,11.90
2019-05-29T13:22:39.848Z,16.53
2019-05-29T13:25:43.843Z,13.43
2019-05-29T13:28:48.173Z,15.90
2019-05-29T13:31:55.702Z,19.30
2019-05-29T13:34:58.239Z,23.73
2019-05-29T13:38:03.300Z,19.13
2019-05-29T13:41:07.702Z,22.50
2019-05-29T13:44:11.985Z,24.13
2019-05-29T13:47:16.055Z,21.90
2019-05-29T13:50:20.984Z,22.57
2019-05-29T13:53:25.090Z,25.70
2019-05-29T13:56:29.301Z,28.43
2019-05-29T13:59:33.440Z,24.80
2019-05-29T14:02:37.348Z,22.50
2019-05-29T14:05:41.341Z,22.40
2019-05-29T14:08:45.476Z,24.13
2019-05-29T14:11:49.472Z,24.00
2019-05-29T14:14:53.592Z,22.03
2019-05-29T14:17:57.601Z,20.90
2019-05-29T14:21:03.125Z,22.83
2019-05-29T14:24:23.478Z,18.83
2019-05-29T14:27:13.310Z,19.53
2019-05-29T14:30:17.549Z,21.27
2019-05-29T14:33:21.556Z,19.53
2019-05-29T14:36:25.652Z,19.07
2019-05-29T14:39:29.943Z,19.27
2019-05-29T14:42:34.141Z,17.87
2019-05-29T14:45:38.376Z,19.70
2019-05-29T14:48:42.550Z,20.33
2019-05-29T14:51:46.496Z,20.07
2019-05-29T14:54:52.426Z,22.33
2019-05-29T14:57:56.536Z,23.03
2019-05-29T15:01:00.518Z,21.47
2019-05-29T15:04:05.474Z,15.90
2019-05-29T15:07:09.855Z,16.27
2019-05-29T15:10:24.816Z,23.27
2019-05-29T15:13:21.612Z,19.33
2019-05-29T15:16:25.691Z,13.40
2019-05-29T15:19:29.697Z,16.90
2019-05-29T15:22:33.646Z,17.23
2019-05-29T15:25:37.582Z,18.37
2019-05-29T15:28:41.546Z,17.27
2019-05-29T15:31:45.604Z,21.23
2019-05-29T15:34:49.540Z,23.50
2019-05-29T15:37:53.569Z,20.83
2019-05-29T15:40:57.579Z,19.77
2019-05-29T15:44:01.507Z,17.07
2019-05-29T15:47:06.773Z,22.43
2019-05-29T15:50:13.414Z,16.73
2019-05-29T15:53:17.932Z,17.90
2019-05-29T15:56:27.749Z,21.53
2019-05-29T15:59:27.554Z,24.70
2019-05-29T16:02:31.631Z,17.63
2019-05-29T16:05:35.731Z,17.60
2019-05-29T16:08:39.817Z,18.03
2019-05-29T16:11:43.702Z,21.43
2019-05-29T16:14:47.658Z,19.83
2019-05-29T16:17:51.551Z,20.03
2019-05-29T16:20:55.595Z,18.93
2019-05-29T16:23:59.561Z,27.13
2019-05-29T16:27:08.788Z,23.27
2019-05-29T16:30:11.381Z,20.83
2019-05-29T16:33:17.042Z,22.23
2019-05-29T16:36:23.521Z,24.83
2019-05-29T16:39:27.685Z,29.87
2019-05-29T16:42:31.583Z,27.30
2019-05-29T16:45:35.772Z,27.03
2019-05-29T16:48:39.962Z,29.30
2019-05-29T16:51:45.566Z,28.47
2019-05-29T16:54:49.721Z,34.50
2019-05-29T16:57:53.717Z,29.33
2019-05-29T17:00:57.616Z,36.57
2019-05-29T17:04:01.586Z,30.73
2019-05-29T17:07:05.546Z,30.00
2019-05-29T17:10:10.179Z,28.63
2019-05-29T17:13:14.674Z,26.23
2019-05-29T17:16:18.771Z,33.47
2019-05-29T17:19:23.158Z,29.13
2019-05-29T17:22:27.332Z,32.10
2019-05-29T17:25:31.286Z,31.07
2019-05-29T17:28:35.271Z,31.53
2019-05-29T17:31:39.237Z,29.37
2019-05-29T17:34:43.220Z,27.50
2019-05-29T17:37:47.256Z,36.63
2019-05-29T17:40:51.326Z,30.57
2019-05-29T17:43:55.430Z,30.33
2019-05-29T17:46:59.486Z,32.87
2019-05-29T17:50:04.856Z,36.93
2019-05-29T17:53:08.886Z,35.20
2019-05-29T17:56:25.333Z,43.30
2019-05-29T17:59:20.028Z,32.73
2019-05-29T18:02:24.647Z,42.67
2019-05-29T18:05:29.376Z,37.27
2019-05-29T18:08:33.569Z,41.70
2019-05-29T18:11:37.666Z,43.30
2019-05-29T18:14:41.746Z,40.53
2019-05-29T18:17:45.850Z,39.27
2019-05-29T18:20:49.845Z,40.63
2019-05-29T18:23:54.005Z,39.13
2019-05-29T18:26:59.201Z,47.87
2019-05-29T18:30:03.587Z,46.73
2019-05-29T18:33:07.632Z,42.37
2019-05-29T18:36:11.656Z,46.17
2019-05-29T18:39:15.735Z,48.57
2019-05-29T18:42:20.401Z,48.23
2019-05-29T18:45:26.216Z,48.03
2019-05-29T18:48:32.293Z,41.87
2019-05-29T18:51:35.975Z,43.50
2019-05-29T18:54:39.981Z,46.30
2019-05-29T18:57:44.587Z,47.27
2019-05-29T19:00:48.699Z,47.33
2019-05-29T19:03:52.745Z,44.60
2019-05-29T19:07:06.186Z,49.23
2019-05-29T19:10:11.689Z,51.77
2019-05-29T19:13:15.973Z,48.73
2019-05-29T19:16:21.738Z,46.00
2019-05-29T19:19:26.217Z,58.03
2019-05-29T19:22:30.565Z,48.87
2019-05-29T19:25:34.771Z,52.77
2019-05-29T19:28:38.902Z,49.57
2019-05-29T19:31:43.241Z,52.70
2019-05-29T19:34:47.310Z,47.70
2019-05-29T19:37:51.355Z,49.43
2019-05-29T19:40:55.384Z,52.30
2019-05-29T19:43:59.368Z,51.83
2019-05-29T19:47:03.740Z,53.10
2019-05-29T19:50:11.800Z,48.57
2019-05-29T19:53:16.004Z,56.00
2019-05-29T19:56:20.101Z,61.47
2019-05-29T19:59:24.103Z,52.70
2019-05-29T20:02:28.465Z,47.90
2019-05-29T20:05:32.846Z,50.87
2019-05-29T20:08:39.410Z,46.70
2019-05-29T20:11:42.600Z,50.67
2019-05-29T20:14:46.521Z,54.57
2019-05-29T20:17:50.594Z,51.37
2019-05-29T20:20:54.635Z,51.30
2019-05-29T20:23:58.831Z,58.13
2019-05-29T20:27:03.059Z,56.63
2019-05-29T20:30:09.776Z,47.10
2019-05-29T20:33:14.032Z,54.87
2019-05-29T20:36:19.062Z,55.50
2019-05-29T20:39:23.842Z,55.10
2019-05-29T20:42:28.186Z,59.87
2019-05-29T20:45:33.329Z,60.80
2019-05-29T20:48:38.697Z,64.80
2019-05-29T20:51:42.853Z,52.30
2019-05-29T20:54:48.617Z,58.70
2019-05-29T20:57:52.804Z,57.30
2019-05-29T21:00:56.818Z,60.20
2019-05-29T21:04:00.902Z,55.03
2019-05-29T21:07:05.473Z,55.87
2019-05-29T21:10:10.222Z,52.50
2019-05-29T21:13:14.446Z,54.70
2019-05-29T21:16:18.652Z,56.37
2019-05-29T21:19:22.852Z,54.60
2019-05-29T21:22:26.974Z,58.40
2019-05-29T21:25:31.172Z,57.97
2019-05-29T21:28:41.753Z,58.37
2019-05-29T21:31:43.621Z,65.37
2019-05-29T21:34:48.049Z,62.83
2019-05-29T21:37:52.177Z,63.83
2019-05-29T21:40:56.472Z,59.90
2019-05-29T21:44:00.692Z,54.40
2019-05-29T21:47:04.919Z,57.27
2019-05-29T21:50:10.649Z,67.83
2019-05-29T21:53:15.091Z,60.20
2019-05-29T21:56:19.312Z,61.97
2019-05-29T21:59:23.535Z,71.23
2019-05-29T22:02:27.853Z,59.43
2019-05-29T22:05:32.880Z,69.50
2019-05-29T22:08:37.087Z,70.13
2019-05-29T22:11:42.852Z,65.23
2019-05-29T22:14:47.875Z,74.03
2019-05-29T22:17:52.907Z,66.40
2019-05-29T22:20:58.736Z,65.03
2019-05-29T22:24:03.219Z,75.30
2019-05-29T22:27:07.432Z,73.93
2019-05-29T22:30:11.972Z,73.90
2019-05-29T22:33:16.011Z,66.37
2019-05-29T22:36:20.279Z,71.80
2019-05-29T22:39:24.282Z,68.97
2019-05-29T22:42:28.422Z,66.00
2019-05-29T22:45:32.532Z,78.47
2019-05-29T22:48:36.753Z,66.03
2019-05-29T22:51:43.012Z,71.37
2019-05-29T22:54:47.316Z,68.47
2019-05-29T22:57:51.827Z,72.17
2019-05-29T23:00:56.174Z,75.97
2019-05-29T23:04:00.347Z,72.47
2019-05-29T23:07:04.494Z,66.53
2019-05-29T23:10:09.597Z,71.17
2019-05-29T23:13:13.873Z,77.30
2019-05-29T23:16:18.016Z,69.07
2019-05-29T23:19:22.193Z,67.00
2019-05-29T23:22:26.305Z,64.70
2019-05-29T23:25:30.333Z,70.80
2019-05-29T23:28:34.436Z,70.87
2019-05-29T23:31:38.440Z,74.50
2019-05-29T23:34:42.672Z,70.00
2019-05-29T23:37:46.786Z,74.50
2019-05-29T23:40:50.792Z,71.43
2019-05-29T23:43:55.410Z,72.10
2019-05-29T23:46:59.753Z,70.10
2019-05-29T23:50:05.393Z,74.13
2019-05-29T23:53:09.424Z,81.33
2019-05-29T23:56:13.487Z,77.43
2019-05-29T23:59:17.702Z,75.93
